Center City, Minnesota
Current Conditions -  °F | °C
As of 6:35 PM on Sunday 25 Jan 2015 (Local Time) from KOEO Reporting Station
Scattered Clouds Scattered Clouds  
Wind Chill: 20°   Ceiling: Unl
Heat Index: 20°   Visibility: 10mi
Dew Point: 13°   Wind: 3mph
Humidity: 74%   Direction: 150°SSE
Pressure: 30.09"   Gusts: NA
Location:  45.39°N, 92.82°W
Report Text: KOEO 260035Z AUTO 15003KT 10SM SCT110 M07/M11 A3009 RMK AO2 T10671106
Loading
Personal Weather Stations






























Interactive Weather Map New forecast layout! Learn more

10-Day Weather Forecast

Advertisements
Track Severe Weather on mobile